Time;durP1;ratioP1;P1;durP2;ratioP2;P2;SDS_P1;SDS_P2;PMS_P1;PMS_P2;Temp;Humidity;BMP_temperature;BMP_pressure;BME280_temperature;BME280_humidity;BME280_pressure;Samples;Min_cycle;Max_cycle;Signal;HPM_P1;HPM_P2
2021/12/18 00:00:50;;;;;;;1.65;0.40;;;20.80;63.20;;;;;;5050959;28;20513;-59
2021/12/18 00:03:17;;;;;;;2.42;0.50;;;20.80;63.20;;;;;;5036405;28;20061;-60
2021/12/18 00:05:43;;;;;;;2.25;0.57;;;20.80;63.20;;;;;;5036245;28;20049;-60
2021/12/18 00:08:09;;;;;;;2.00;0.40;;;20.70;63.20;;;;;;5035850;28;20090;-60
2021/12/18 00:10:35;;;;;;;2.88;0.50;;;20.70;63.20;;;;;;5024622;28;20034;-59
2021/12/18 00:13:01;;;;;;;1.00;0.40;;;20.70;63.20;;;;;;5015416;28;20414;-59
2021/12/18 00:15:26;;;;;;;3.90;0.70;;;20.70;63.10;;;;;;5016059;28;20524;-59
2021/12/18 00:17:52;;;;;;;1.25;0.40;;;20.70;63.10;;;;;;5029801;28;20068;-59
2021/12/18 00:20:18;;;;;;;1.55;0.40;;;20.70;63.10;;;;;;5036234;28;20053;-60
2021/12/18 00:22:43;;;;;;;2.97;0.52;;;20.70;63.10;;;;;;5034315;28;20543;-60
2021/12/18 00:25:09;;;;;;;0.73;0.40;;;20.60;63.10;;;;;;5036162;28;20132;-60
2021/12/18 00:27:35;;;;;;;3.40;0.50;;;20.70;63.10;;;;;;5035948;28;20067;-59
2021/12/18 00:30:01;;;;;;;0.95;0.43;;;20.60;63.10;;;;;;5035335;28;20509;-60
2021/12/18 00:32:26;;;;;;;1.80;0.50;;;20.60;63.00;;;;;;5035232;28;20076;-60
2021/12/18 00:34:52;;;;;;;1.50;0.30;;;20.60;63.60;;;;;;5035815;28;20076;-60
2021/12/18 00:37:17;;;;;;;1.38;0.32;;;20.60;63.00;;;;;;5035340;28;20042;-60
2021/12/18 00:39:53;;;;;;;1.35;0.45;;;20.60;62.90;;;;;;5034153;28;20514;-60
2021/12/18 00:42:39;;;;;;;1.25;0.52;;;20.50;62.90;;;;;;5035361;28;20072;-59
2021/12/18 00:45:12;;;;;;;2.42;0.57;;;20.50;62.90;;;;;;5035665;28;20124;-60
2021/12/18 00:47:38;;;;;;;1.30;0.47;;;20.50;62.80;;;;;;5035076;28;20160;-60
2021/12/18 00:50:04;;;;;;;1.30;0.45;;;20.50;62.80;;;;;;5034792;28;20132;-59
2021/12/18 00:52:30;;;;;;;1.23;0.50;;;20.50;62.80;;;;;;5035380;28;20041;-60
2021/12/18 00:54:56;;;;;;;1.30;0.45;;;20.50;62.80;;;;;;5035438;28;20041;-60
2021/12/18 00:57:21;;;;;;;2.20;0.50;;;20.50;62.80;;;;;;5033623;28;20053;-60
2021/12/18 00:59:49;;;;;;;2.10;0.50;;;20.50;62.80;;;;;;5034861;28;20149;-60
2021/12/18 01:02:15;;;;;;;1.33;0.47;;;20.50;62.80;;;;;;5035002;28;20571;-59
2021/12/18 01:04:40;;;;;;;2.78;0.43;;;20.40;62.70;;;;;;5034767;28;20042;-59
2021/12/18 01:07:06;;;;;;;1.20;0.52;;;20.40;62.70;;;;;;5035691;28;20038;-59
2021/12/18 01:12:28;;;;;;;0.90;0.43;;;20.40;62.60;;;;;;5033484;28;20060;-59
2021/12/18 01:15:12;;;;;;;0.85;0.50;;;20.40;62.70;;;;;;5034017;28;20524;-60
2021/12/18 01:23:06;;;;;;;0.70;0.38;;;20.40;62.60;;;;;;5035267;28;20050;-59
2021/12/18 01:25:32;;;;;;;1.60;0.50;;;20.30;62.50;;;;;;5034170;28;20053;-60
2021/12/18 01:27:57;;;;;;;1.17;0.35;;;20.30;62.50;;;;;;5034720;28;20049;-60
2021/12/18 01:30:23;;;;;;;0.95;0.45;;;20.30;62.50;;;;;;5035092;28;20120;-59
2021/12/18 01:32:49;;;;;;;1.20;0.40;;;20.40;62.50;;;;;;5033059;28;20486;-59
2021/12/18 01:35:15;;;;;;;1.35;0.50;;;20.30;62.50;;;;;;5034828;28;20050;-59
2021/12/18 01:37:41;;;;;;;0.82;0.40;;;20.30;62.50;;;;;;5034729;28;20048;-60
2021/12/18 01:40:07;;;;;;;0.95;0.43;;;20.30;62.40;;;;;;5033106;28;20054;-60
2021/12/18 01:45:26;;;;;;;2.03;0.40;;;20.30;62.40;;;;;;5034615;28;20485;-59
2021/12/18 01:53:20;;;;;;;1.15;0.40;;;20.20;62.40;;;;;;5033738;28;20075;-59
2021/12/18 01:55:48;;;;;;;1.17;0.30;;;20.20;62.30;;;;;;5034027;28;20055;-60
2021/12/18 01:58:14;;;;;;;1.92;0.40;;;20.20;62.30;;;;;;5033380;28;20053;-59
2021/12/18 02:00:41;;;;;;;0.93;0.30;;;20.20;62.30;;;;;;5033734;28;20056;-59
2021/12/18 02:03:07;;;;;;;1.08;0.30;;;20.20;62.30;;;;;;5034472;28;20052;-59
2021/12/18 02:05:32;;;;;;;1.30;0.55;;;20.20;62.30;;;;;;5032841;28;20049;-59
2021/12/18 02:07:58;;;;;;;1.27;0.45;;;20.20;62.20;;;;;;5032406;28;20107;-59
2021/12/18 02:10:27;;;;;;;2.28;0.45;;;20.20;62.20;;;;;;5031931;28;20052;-59
2021/12/18 02:13:08;;;;;;;1.65;0.40;;;20.20;62.20;;;;;;5032617;28;20056;-59
2021/12/18 02:21:16;;;;;;;3.08;0.50;;;20.10;62.10;;;;;;5013391;28;20085;-60
2021/12/18 02:23:42;;;;;;;1.25;0.40;;;20.20;62.10;;;;;;5028741;28;20041;-60
2021/12/18 02:26:08;;;;;;;0.88;0.30;;;20.10;62.00;;;;;;5033941;28;20052;-60
2021/12/18 02:28:34;;;;;;;0.90;0.40;;;20.10;62.00;;;;;;5033311;28;20041;-59
2021/12/18 02:31:00;;;;;;;0.90;0.40;;;20.10;62.00;;;;;;5031933;28;20445;-60
2021/12/18 02:33:25;;;;;;;1.38;0.30;;;20.10;62.00;;;;;;5033905;28;20052;-59
2021/12/18 02:35:53;;;;;;;1.48;0.40;;;20.10;62.00;;;;;;5031948;28;20072;-60
2021/12/18 02:38:33;;;;;;;1.52;0.40;;;20.10;62.00;;;;;;5033813;28;20080;-60
2021/12/18 02:41:11;;;;;;;0.82;0.30;;;20.10;61.90;;;;;;5031993;28;20422;-59
2021/12/18 02:43:37;;;;;;;;;;;20.10;61.90;;;;;;5031928;28;20049;-59
2021/12/18 02:46:07;;;;;;;1.27;0.40;;;20.10;61.90;;;;;;5033262;28;19924;-60
2021/12/18 02:48:34;;;;;;;0.65;0.30;;;20.10;62.00;;;;;;5031353;28;20057;-59
2021/12/18 02:50:59;;;;;;;0.98;0.40;;;20.10;61.90;;;;;;5030851;28;20103;-59
2021/12/18 02:53:25;;;;;;;0.80;0.30;;;20.10;61.80;;;;;;5033580;28;20489;-60
2021/12/18 02:55:59;;;;;;;1.67;0.40;;;20.10;61.80;;;;;;5032523;28;20516;-59
2021/12/18 02:58:24;;;;;;;0.63;0.30;;;20.10;61.70;;;;;;5033166;28;20412;-59
2021/12/18 03:00:51;;;;;;;0.95;0.40;;;20.10;61.70;;;;;;5032341;28;20037;-59
2021/12/18 03:03:18;;;;;;;0.40;0.30;;;20.10;61.60;;;;;;5032316;28;20409;-60
2021/12/18 03:05:55;;;;;;;0.57;0.30;;;20.10;61.60;;;;;;5031575;28;20046;-59
2021/12/18 03:08:35;;;;;;;0.77;0.40;;;20.10;61.50;;;;;;5033547;28;20108;-60
2021/12/18 03:20:07;;;;;;;1.27;0.40;;;20.10;61.50;;;;;;5013192;28;20132;-59
2021/12/18 03:24:55;;;;;;;0.80;0.43;;;20.20;61.50;;;;;;5023513;28;20044;-59
2021/12/18 03:27:21;;;;;;;0.85;0.30;;;20.20;61.50;;;;;;5052955;28;20045;-59
2021/12/18 03:29:47;;;;;;;0.50;0.30;;;20.10;61.40;;;;;;5051135;28;20559;-59
2021/12/18 03:32:12;;;;;;;1.48;0.30;;;20.20;61.50;;;;;;5052176;28;20133;-59
2021/12/18 03:34:38;;;;;;;0.57;0.30;;;20.20;61.40;;;;;;5052673;28;20052;-59
2021/12/18 03:37:04;;;;;;;1.20;0.30;;;20.20;61.40;;;;;;5033237;28;20045;-60
2021/12/18 03:39:29;;;;;;;0.40;0.20;;;20.20;61.30;;;;;;5031919;28;20124;-60
2021/12/18 03:41:55;;;;;;;1.00;0.30;;;20.20;61.30;;;;;;5029968;28;20136;-60
2021/12/18 03:44:21;;;;;;;0.98;0.30;;;20.20;61.30;;;;;;5032598;28;20045;-59
2021/12/18 03:46:46;;;;;;;1.85;0.40;;;20.20;61.30;;;;;;5031670;28;20161;-59
2021/12/18 03:49:12;;;;;;;0.82;0.40;;;20.20;61.30;;;;;;5045846;28;20070;-60
2021/12/18 03:51:38;;;;;;;0.50;0.20;;;20.20;61.30;;;;;;5031164;28;20044;-60
2021/12/18 03:54:03;;;;;;;0.73;0.30;;;20.20;61.20;;;;;;5031541;28;20056;-60
2021/12/18 03:56:29;;;;;;;0.32;0.20;;;20.20;61.20;;;;;;5032264;28;20505;-60
2021/12/18 03:58:54;;;;;;;0.68;0.30;;;20.20;61.20;;;;;;5032898;28;20049;-59
2021/12/18 04:01:20;;;;;;;0.40;0.20;;;20.20;61.20;;;;;;5032060;28;20049;-59
2021/12/18 04:03:45;;;;;;;0.70;0.20;;;20.20;61.20;;;;;;5030611;28;20413;-60
2021/12/18 04:06:11;;;;;;;0.32;0.30;;;20.20;61.20;;;;;;5031808;28;20041;-59
2021/12/18 04:08:37;;;;;;;0.55;0.22;;;20.20;61.20;;;;;;5032422;28;20398;-60
2021/12/18 04:11:02;;;;;;;0.50;0.30;;;20.20;61.20;;;;;;5031895;28;20049;-60
2021/12/18 04:13:28;;;;;;;0.20;0.20;;;20.20;61.10;;;;;;5031806;28;20119;-60
2021/12/18 04:15:53;;;;;;;0.60;0.30;;;20.20;61.10;;;;;;5031179;28;20485;-60
2021/12/18 04:18:19;;;;;;;0.40;0.20;;;20.20;61.40;;;;;;5032317;28;20049;-59
2021/12/18 04:20:44;;;;;;;0.98;0.10;;;20.20;61.10;;;;;;5031173;28;20045;-59
2021/12/18 04:23:10;;;;;;;0.60;0.17;;;20.20;61.10;;;;;;5032434;28;20112;-60
2021/12/18 04:25:35;;;;;;;0.47;0.28;;;20.20;61.10;;;;;;5031304;28;20054;-60
2021/12/18 04:28:01;;;;;;;0.90;0.20;;;20.20;61.10;;;;;;5031386;28;20050;-60
2021/12/18 04:30:26;;;;;;;0.57;0.20;;;20.30;61.10;;;;;;5032403;28;20041;-59
2021/12/18 04:32:52;;;;;;;0.30;0.20;;;20.20;61.10;;;;;;5032085;28;20069;-59
2021/12/18 04:35:17;;;;;;;0.50;0.20;;;20.30;61.10;;;;;;5031320;28;20406;-60
2021/12/18 04:37:43;;;;;;;0.40;0.20;;;20.30;61.10;;;;;;5033619;28;20050;-59
2021/12/18 04:40:09;;;;;;;0.40;0.20;;;20.30;61.10;;;;;;5035630;28;20042;-60
2021/12/18 04:42:34;;;;;;;0.50;0.15;;;20.30;61.00;;;;;;5034291;28;20041;-59
2021/12/18 04:45:00;;;;;;;0.30;0.30;;;20.30;61.00;;;;;;5035719;28;20045;-59
2021/12/18 04:47:25;;;;;;;0.40;0.20;;;20.30;61.00;;;;;;5035926;28;20099;-59
2021/12/18 04:49:51;;;;;;;0.80;0.30;;;20.30;61.00;;;;;;5034936;28;20049;-59
2021/12/18 04:52:16;;;;;;;1.13;0.25;;;20.30;61.00;;;;;;5035896;28;20132;-59
2021/12/18 04:54:44;;;;;;;0.35;0.20;;;20.30;60.90;;;;;;5034424;28;20045;-59
2021/12/18 04:57:10;;;;;;;0.40;0.10;;;20.30;60.90;;;;;;5034830;28;20091;-59
2021/12/18 04:59:42;;;;;;;0.30;0.10;;;20.30;61.00;;;;;;5035561;28;20045;-59
2021/12/18 05:02:08;;;;;;;0.20;0.10;;;20.30;60.90;;;;;;5034775;28;20092;-59
2021/12/18 05:04:33;;;;;;;1.85;0.20;;;20.30;60.80;;;;;;5034198;28;20065;-59
2021/12/18 05:06:59;;;;;;;0.13;0.10;;;20.30;60.80;;;;;;5033403;28;20049;-59
2021/12/18 05:09:24;;;;;;;0.63;0.20;;;20.30;60.90;;;;;;5034362;28;20045;-59
2021/12/18 05:11:51;;;;;;;0.85;0.32;;;20.30;60.80;;;;;;5035180;28;20068;-60
2021/12/18 05:14:16;;;;;;;0.32;0.20;;;20.30;60.80;;;;;;5034143;28;20049;-59
2021/12/18 05:16:42;;;;;;;0.45;0.20;;;20.30;60.80;;;;;;5033314;28;20053;-60
2021/12/18 05:19:07;;;;;;;0.60;0.10;;;20.30;60.80;;;;;;5034861;28;20041;-60
2021/12/18 05:21:34;;;;;;;0.70;0.10;;;20.30;60.70;;;;;;5034942;28;20489;-60
2021/12/18 05:24:00;;;;;;;0.20;0.20;;;20.30;60.70;;;;;;5033889;28;20045;-60
2021/12/18 05:26:26;;;;;;;0.30;0.20;;;20.30;60.80;;;;;;5035220;28;20550;-60
2021/12/18 05:28:51;;;;;;;0.63;0.20;;;20.30;60.70;;;;;;5033776;28;20029;-59
2021/12/18 05:31:17;;;;;;;0.10;0.10;;;20.30;60.70;;;;;;5034431;28;20555;-60
2021/12/18 05:33:46;;;;;;;0.13;0.10;;;20.30;60.70;;;;;;5033646;28;20052;-59
2021/12/18 05:39:02;;;;;;;0.80;0.20;;;20.30;60.70;;;;;;5033837;28;20049;-59
2021/12/18 05:41:28;;;;;;;0.25;0.10;;;20.40;60.70;;;;;;5033575;28;20481;-59
2021/12/18 05:43:54;;;;;;;0.38;0.20;;;20.30;60.60;;;;;;5034824;28;20034;-59
2021/12/18 05:46:19;;;;;;;0.28;0.10;;;20.40;60.60;;;;;;5033951;28;20500;-60
2021/12/18 05:48:45;;;;;;;0.10;0.10;;;20.40;60.70;;;;;;5032243;28;20128;-59
2021/12/18 05:51:10;;;;;;;0.20;0.20;;;20.40;60.70;;;;;;5034290;28;20053;-59
2021/12/18 05:53:36;;;;;;;1.17;0.10;;;20.40;60.60;;;;;;5033938;28;20037;-60
2021/12/18 05:56:01;;;;;;;0.10;0.10;;;20.40;60.60;;;;;;5034260;28;20088;-59
2021/12/18 05:58:27;;;;;;;0.20;0.10;;;20.40;60.60;;;;;;5034471;28;20049;-59
2021/12/18 06:00:52;;;;;;;0.10;0.10;;;20.40;60.60;;;;;;5033321;28;20085;-60
2021/12/18 06:03:18;;;;;;;0.40;0.17;;;20.40;60.60;;;;;;5034552;28;20047;-60
2021/12/18 06:05:43;;;;;;;0.38;0.13;;;20.40;60.60;;;;;;5033096;28;20081;-59
2021/12/18 06:08:11;;;;;;;0.25;0.10;;;20.40;60.60;;;;;;5034406;28;20490;-59
2021/12/18 06:10:37;;;;;;;;;;;20.40;60.60;;;;;;5034716;28;20060;-60
2021/12/18 06:13:03;;;;;;;0.10;0.10;;;20.40;60.60;;;;;;5047774;28;19929;-60
2021/12/18 06:15:29;;;;;;;0.22;0.10;;;20.40;60.60;;;;;;5034447;28;20041;-60
2021/12/18 06:17:58;;;;;;;0.20;0.10;;;20.40;60.60;;;;;;5034091;28;20052;-59
2021/12/18 06:20:24;;;;;;;0.20;0.10;;;20.40;60.50;;;;;;5032466;28;20513;-59
2021/12/18 06:22:49;;;;;;;0.63;0.10;;;20.40;60.50;;;;;;5033726;28;20046;-59
2021/12/18 06:25:15;;;;;;;0.30;0.10;;;20.40;60.50;;;;;;5034103;28;20047;-59
2021/12/18 06:27:40;;;;;;;0.30;0.10;;;20.40;60.60;;;;;;5033296;28;20061;-60
2021/12/18 06:30:06;;;;;;;0.20;0.10;;;20.40;60.50;;;;;;5033996;28;20038;-58
2021/12/18 06:32:32;;;;;;;0.10;0.10;;;20.40;60.50;;;;;;5033725;28;20073;-59
2021/12/18 06:34:58;;;;;;;0.13;0.10;;;20.40;60.50;;;;;;5032417;28;20069;-59
2021/12/18 06:37:23;;;;;;;0.10;0.10;;;20.40;60.50;;;;;;5033999;28;20120;-61
2021/12/18 06:39:49;;;;;;;0.10;0.10;;;20.40;60.40;;;;;;5031899;28;20041;-60
2021/12/18 06:42:14;;;;;;;0.10;0.10;;;20.40;60.40;;;;;;5031663;28;20087;-60
2021/12/18 06:44:40;;;;;;;0.08;0.00;;;20.40;60.40;;;;;;5033688;28;20560;-60
2021/12/18 06:47:05;;;;;;;0.08;0.08;;;20.40;60.40;;;;;;5033672;28;20045;-60
2021/12/18 06:49:31;;;;;;;0.10;0.10;;;20.50;60.50;;;;;;5032681;28;20099;-59
2021/12/18 06:51:57;;;;;;;0.10;0.10;;;20.50;60.40;;;;;;5031837;28;20088;-59
2021/12/18 06:54:23;;;;;;;0.05;0.00;;;20.50;60.40;;;;;;5032522;28;20049;-60
2021/12/18 06:56:49;;;;;;;0.20;0.10;;;20.50;60.40;;;;;;5032263;28;20056;-60
2021/12/18 06:59:15;;;;;;;0.10;0.10;;;20.50;60.40;;;;;;5033406;28;20055;-60
2021/12/18 07:01:40;;;;;;;0.40;0.15;;;20.50;60.40;;;;;;5031388;28;20049;-58
2021/12/18 07:04:06;;;;;;;0.20;0.10;;;20.50;60.30;;;;;;5032311;28;20048;-59
2021/12/18 07:06:31;;;;;;;0.20;0.10;;;20.50;60.30;;;;;;5032267;28;20127;-60
2021/12/18 07:08:57;;;;;;;0.20;0.20;;;20.50;60.30;;;;;;5032237;28;20041;-60
2021/12/18 07:11:24;;;;;;;0.10;0.10;;;20.50;60.30;;;;;;5033279;28;20414;-60
2021/12/18 07:13:49;;;;;;;0.20;0.10;;;20.50;60.90;;;;;;5031922;28;20045;-60
2021/12/18 07:16:15;;;;;;;0.13;0.10;;;20.50;60.20;;;;;;5030236;28;20107;-60
2021/12/18 07:18:41;;;;;;;0.17;0.17;;;20.50;60.20;;;;;;5032369;28;20125;-60
2021/12/18 07:21:06;;;;;;;0.20;0.10;;;20.50;60.20;;;;;;5032955;28;20087;-60
2021/12/18 07:23:32;;;;;;;0.60;0.20;;;20.60;60.30;;;;;;5032188;28;20042;-61
2021/12/18 07:25:57;;;;;;;0.22;0.13;;;20.60;60.30;;;;;;5031627;28;20069;-60
2021/12/18 07:28:23;;;;;;;0.30;0.20;;;20.60;60.20;;;;;;5032856;28;20552;-60
2021/12/18 07:30:49;;;;;;;0.30;0.20;;;20.60;60.20;;;;;;5031804;28;20080;-60
2021/12/18 07:33:14;;;;;;;0.45;0.30;;;20.60;60.20;;;;;;5030614;28;20068;-58
2021/12/18 07:35:40;;;;;;;0.63;0.30;;;20.60;60.20;;;;;;5032823;28;20041;-59
2021/12/18 07:38:06;;;;;;;0.47;0.30;;;20.60;60.20;;;;;;5046564;28;20041;-60
2021/12/18 07:40:32;;;;;;;0.70;0.30;;;20.60;60.20;;;;;;5032306;28;20049;-59
2021/12/18 07:42:57;;;;;;;0.40;0.30;;;20.60;60.10;;;;;;5032472;28;20506;-59
2021/12/18 07:45:23;;;;;;;0.52;0.40;;;20.60;60.10;;;;;;5031929;28;20512;-59
2021/12/18 07:47:48;;;;;;;1.13;0.52;;;20.60;60.70;;;;;;5032313;28;20049;-60
2021/12/18 07:50:18;;;;;;;1.02;0.50;;;20.60;60.00;;;;;;5031513;28;20042;-59
2021/12/18 07:52:47;;;;;;;1.15;0.50;;;20.60;60.00;;;;;;5031697;28;20145;-60
2021/12/18 07:55:13;;;;;;;0.80;0.40;;;20.70;60.00;;;;;;5031234;28;20053;-59
2021/12/18 07:57:38;;;;;;;0.68;0.45;;;20.70;60.00;;;;;;5032461;28;20046;-60
2021/12/18 08:00:05;;;;;;;0.68;0.40;;;20.70;60.00;;;;;;5031473;28;20038;-60
2021/12/18 08:02:31;;;;;;;1.65;0.70;;;20.70;60.00;;;;;;5032608;28;20130;-59
2021/12/18 08:04:56;;;;;;;1.25;0.60;;;20.70;59.90;;;;;;5032421;28;20083;-58
2021/12/18 08:07:22;;;;;;;1.23;0.57;;;20.70;59.90;;;;;;5031870;28;20052;-58
2021/12/18 08:09:47;;;;;;;0.70;0.40;;;20.70;59.90;;;;;;5032054;28;20049;-59
2021/12/18 08:12:13;;;;;;;2.22;0.68;;;20.70;59.80;;;;;;5032624;28;20067;-60
2021/12/18 08:14:38;;;;;;;2.08;0.60;;;20.70;59.90;;;;;;5036302;28;20056;-59
2021/12/18 08:17:04;;;;;;;2.65;0.70;;;20.70;59.90;;;;;;5036273;28;20122;-60
2021/12/18 08:19:29;;;;;;;3.15;0.70;;;20.70;59.80;;;;;;5034622;28;20397;-60
2021/12/18 08:21:55;;;;;;;1.50;0.63;;;20.70;59.80;;;;;;5035924;28;20153;-60
2021/12/18 08:24:21;;;;;;;3.08;1.02;;;20.70;59.80;;;;;;5036028;28;20451;-59
2021/12/18 08:26:46;;;;;;;2.05;0.65;;;20.70;59.60;;;;;;5035090;28;20516;-60
2021/12/18 08:29:12;;;;;;;1.00;0.52;;;20.80;59.70;;;;;;5036234;28;20042;-59
2021/12/18 08:31:37;;;;;;;1.50;0.65;;;20.80;59.70;;;;;;5036093;28;20042;-59
2021/12/18 08:34:03;;;;;;;3.28;0.90;;;20.80;59.80;;;;;;5035229;28;20057;-59
2021/12/18 08:36:28;;;;;;;2.00;0.70;;;20.80;59.70;;;;;;5036065;28;20052;-59
2021/12/18 08:38:54;;;;;;;4.57;0.93;;;20.80;59.80;;;;;;5035942;28;20077;-59
2021/12/18 08:41:20;;;;;;;3.67;1.17;;;20.80;59.80;;;;;;5035032;28;20041;-59
2021/12/18 08:43:46;;;;;;;1.73;0.90;;;20.80;60.00;;;;;;5051189;28;20404;-59
2021/12/18 08:46:12;;;;;;;2.78;1.05;;;20.80;60.00;;;;;;5051158;28;20041;-60
2021/12/18 08:48:38;;;;;;;5.47;0.98;;;20.80;60.10;;;;;;5035024;28;20037;-61
2021/12/18 08:51:03;;;;;;;1.92;0.80;;;20.80;60.20;;;;;;5035479;28;20045;-59
2021/12/18 08:53:29;;;;;;;3.08;1.05;;;20.80;60.30;;;;;;5035867;28;20033;-59
2021/12/18 08:55:54;;;;;;;4.30;1.05;;;20.80;60.30;;;;;;5050089;28;20096;-58
2021/12/18 08:58:20;;;;;;;4.05;0.95;;;20.80;60.40;;;;;;5034984;28;20401;-57
2021/12/18 09:00:45;;;;;;;2.70;1.00;;;20.90;60.40;;;;;;5034731;28;20050;-57
2021/12/18 09:03:11;;;;;;;3.40;0.93;;;20.90;60.50;;;;;;5033619;28;20092;-57
2021/12/18 09:05:36;;;;;;;1.80;0.90;;;20.90;60.50;;;;;;5032301;28;20057;-58
2021/12/18 09:08:02;;;;;;;4.72;1.20;;;20.90;60.50;;;;;;5034918;28;20052;-58
2021/12/18 09:10:27;;;;;;;5.40;1.15;;;20.90;60.50;;;;;;5034548;28;20505;-57
2021/12/18 09:12:53;;;;;;;1.50;0.85;;;20.90;60.40;;;;;;5035024;28;20546;-57
2021/12/18 09:15:19;;;;;;;2.28;1.00;;;20.90;60.30;;;;;;5035341;28;20038;-58
2021/12/18 09:17:44;;;;;;;3.20;0.70;;;20.90;60.90;;;;;;5034496;28;20048;-58
2021/12/18 09:20:11;;;;;;;2.72;1.10;;;20.90;60.40;;;;;;5035086;28;20049;-58
2021/12/18 09:22:36;;;;;;;2.67;0.90;;;20.90;60.40;;;;;;5034142;28;20424;-57
2021/12/18 09:25:05;;;;;;;3.50;1.17;;;20.90;60.50;;;;;;5034866;28;20515;-57
2021/12/18 09:27:31;;;;;;;3.15;1.40;;;20.90;60.60;;;;;;5035280;28;20037;-57
2021/12/18 09:29:56;;;;;;;4.05;1.23;;;20.90;60.70;;;;;;5034215;28;20095;-57
2021/12/18 09:32:22;;;;;;;3.00;0.98;;;21.00;60.80;;;;;;5035245;28;20481;-57
2021/12/18 09:34:47;;;;;;;3.40;1.08;;;21.00;60.80;;;;;;5034316;28;20504;-57
2021/12/18 09:37:13;;;;;;;3.95;1.23;;;21.00;60.80;;;;;;5034178;28;20120;-57
2021/12/18 09:39:38;;;;;;;3.67;1.05;;;21.00;60.80;;;;;;5034731;28;20107;-57
2021/12/18 09:42:04;;;;;;;3.17;1.27;;;21.00;60.90;;;;;;5034325;28;20533;-57
2021/12/18 09:44:31;;;;;;;3.42;0.95;;;21.00;61.00;;;;;;5033836;28;20465;-57
2021/12/18 09:46:57;;;;;;;4.90;1.02;;;21.00;61.00;;;;;;5034343;28;20424;-57
2021/12/18 09:49:22;;;;;;;2.30;1.20;;;21.00;61.00;;;;;;5034821;28;20095;-57
2021/12/18 09:51:48;;;;;;;2.45;1.20;;;21.00;60.90;;;;;;5033628;28;20045;-58
2021/12/18 09:54:14;;;;;;;4.28;1.33;;;21.00;61.00;;;;;;5034327;28;20056;-57
2021/12/18 09:56:39;;;;;;;3.47;1.23;;;21.00;61.00;;;;;;5034202;28;20125;-57
2021/12/18 09:59:05;;;;;;;2.80;0.90;;;21.00;61.00;;;;;;5033676;28;20038;-58
2021/12/18 10:01:32;;;;;;;2.63;0.80;;;21.00;61.00;;;;;;5034580;28;20041;-58
2021/12/18 10:03:59;;;;;;;2.42;0.90;;;21.00;60.90;;;;;;5034013;28;20041;-57
2021/12/18 10:06:28;;;;;;;1.75;1.08;;;21.00;60.90;;;;;;5033870;28;20187;-58
2021/12/18 10:08:54;;;;;;;1.65;0.90;;;21.10;61.00;;;;;;5034021;28;20049;-57
2021/12/18 10:11:19;;;;;;;1.85;0.85;;;21.00;60.90;;;;;;5034353;28;20052;-57
2021/12/18 10:14:02;;;;;;;1.80;0.95;;;21.10;61.00;;;;;;5033337;28;20092;-57
2021/12/18 10:16:28;;;;;;;1.83;0.95;;;21.10;60.80;;;;;;5034403;28;20504;-58
2021/12/18 10:18:57;;;;;;;2.00;1.00;;;21.10;60.70;;;;;;5031673;28;20041;-57
2021/12/18 10:21:24;;;;;;;3.30;1.00;;;21.10;60.70;;;;;;5034198;28;20049;-57
2021/12/18 10:23:50;;;;;;;2.13;1.15;;;21.10;60.70;;;;;;5033898;28;20049;-57
2021/12/18 10:26:37;;;;;;;2.85;1.17;;;21.10;60.80;;;;;;5033205;28;20057;-57
2021/12/18 10:29:07;;;;;;;2.60;1.00;;;21.10;60.90;;;;;;5033756;28;20041;-58
2021/12/18 10:31:43;;;;;;;2.08;1.00;;;21.10;61.00;;;;;;5032466;28;20048;-57
2021/12/18 10:34:26;;;;;;;2.75;1.15;;;21.10;60.90;;;;;;5032966;28;20042;-57
2021/12/18 10:37:19;;;;;;;2.90;1.23;;;21.10;60.70;;;;;;5033020;28;20072;-57
2021/12/18 10:39:51;;;;;;;2.33;1.00;;;21.10;60.80;;;;;;5032826;28;20057;-56
2021/12/18 10:42:19;;;;;;;3.38;1.00;;;21.10;60.90;;;;;;5047806;28;20081;-57
2021/12/18 10:45:02;;;;;;;1.77;0.80;;;21.20;60.90;;;;;;5033024;28;20120;-57
2021/12/18 10:48:00;;;;;;;2.55;0.88;;;21.20;61.00;;;;;;5033043;28;20050;-57
2021/12/18 10:50:49;;;;;;;3.42;0.90;;;21.20;61.20;;;;;;5033467;28;20037;-57
2021/12/18 10:53:18;;;;;;;2.70;1.00;;;21.20;61.20;;;;;;5043927;28;20443;-57
2021/12/18 10:55:44;;;;;;;2.75;1.00;;;21.20;61.20;;;;;;5052374;28;20049;-57
2021/12/18 10:58:30;;;;;;;2.85;1.00;;;21.20;61.30;;;;;;5042928;28;20059;-57
2021/12/18 11:01:00;;;;;;;1.33;0.75;;;21.20;61.20;;;;;;5032421;28;20474;-58
2021/12/18 11:03:37;;;;;;;2.00;1.00;;;21.30;61.20;;;;;;5032999;28;20370;-59
2021/12/18 11:06:03;;;;;;;3.45;0.90;;;21.30;61.10;;;;;;5048356;28;20115;-59
2021/12/18 11:08:28;;;;;;;2.13;0.80;;;21.30;61.00;;;;;;5047853;28;20045;-57
2021/12/18 11:13:38;;;;;;;2.28;0.80;;;21.30;61.00;;;;;;5032954;28;20049;-57
2021/12/18 11:13:48;;;;;;;2.60;0.82;;;21.30;61.20;;;;;;5032814;28;20049;-57
2021/12/18 11:16:15;;;;;;;1.67;0.68;;;21.30;61.20;;;;;;5032484;28;20063;-57
2021/12/18 11:18:41;;;;;;;2.38;0.68;;;21.30;61.20;;;;;;5032607;28;20056;-57
2021/12/18 11:21:07;;;;;;;3.38;0.77;;;21.30;61.20;;;;;;5048425;28;20046;-57
2021/12/18 11:23:43;;;;;;;1.38;0.70;;;21.30;61.10;;;;;;5048403;28;20053;-57
2021/12/18 11:26:09;;;;;;;1.75;0.70;;;21.40;61.20;;;;;;5052881;28;20045;-58
2021/12/18 11:28:35;;;;;;;1.35;0.52;;;21.30;61.20;;;;;;5052583;28;20114;-57
2021/12/18 11:31:02;;;;;;;3.15;1.08;;;21.30;61.20;;;;;;5051928;28;20041;-57
2021/12/18 11:33:27;;;;;;;2.95;0.90;;;21.30;61.20;;;;;;5052877;28;20045;-57
2021/12/18 11:35:53;;;;;;;3.05;0.82;;;21.30;61.30;;;;;;5052370;28;20044;-58
2021/12/18 11:38:19;;;;;;;4.10;0.80;;;21.40;61.30;;;;;;5050739;28;20136;-57
2021/12/18 11:40:44;;;;;;;2.45;0.85;;;21.40;61.40;;;;;;5034297;28;20055;-57
2021/12/18 11:43:36;;;;;;;1.45;0.70;;;21.40;61.30;;;;;;5043681;28;20055;-58
2021/12/18 11:46:03;;;;;;;6.65;0.90;;;21.40;61.30;;;;;;5030957;28;20370;-56
2021/12/18 11:48:52;;;;;;;1.25;0.65;;;21.40;61.30;;;;;;5029521;28;20044;-56
2021/12/18 11:51:18;;;;;;;1.40;0.60;;;21.40;61.40;;;;;;5029952;28;20042;-57
2021/12/18 11:53:43;;;;;;;1.75;0.70;;;21.40;61.40;;;;;;5031948;28;20037;-56
2021/12/18 11:56:09;;;;;;;2.03;0.85;;;21.40;61.40;;;;;;5030902;28;20042;-58
2021/12/18 11:58:43;;;;;;;2.17;0.75;;;21.40;61.30;;;;;;5030440;28;20505;-58
2021/12/18 12:01:17;;;;;;;2.28;0.73;;;21.40;61.20;;;;;;5047116;28;20046;-58
2021/12/18 12:03:55;;;;;;;2.88;0.75;;;21.40;61.10;;;;;;5032341;28;20041;-58
2021/12/18 12:06:41;;;;;;;1.95;0.80;;;21.40;61.10;;;;;;5032009;28;20049;-58
2021/12/18 12:11:58;;;;;;;1.52;0.70;;;21.40;61.10;;;;;;5031409;28;20045;-57
2021/12/18 12:14:28;;;;;;;3.28;0.70;;;21.30;61.10;;;;;;5032539;28;20136;-58
2021/12/18 12:17:29;;;;;;;1.88;0.60;;;21.30;61.00;;;;;;5032315;28;20485;-58
2021/12/18 12:20:03;;;;;;;5.45;1.00;;;21.30;61.00;;;;;;5031524;28;20107;-57
2021/12/18 12:22:42;;;;;;;3.03;0.70;;;21.30;61.10;;;;;;5032446;28;20113;-58
2021/12/18 12:25:08;;;;;;;2.97;0.70;;;21.30;60.90;;;;;;5032401;28;20041;-57
2021/12/18 12:27:35;;;;;;;2.45;0.73;;;21.30;60.90;;;;;;5030282;28;20562;-58
2021/12/18 12:30:10;;;;;;;3.35;1.10;;;21.30;60.90;;;;;;5029798;28;20547;-58
2021/12/18 12:32:36;;;;;;;6.85;0.85;;;21.30;60.80;;;;;;5027327;28;20493;-57
2021/12/18 12:35:12;;;;;;;3.13;0.80;;;21.30;60.90;;;;;;5031613;28;20050;-57
2021/12/18 12:37:47;;;;;;;4.28;1.05;;;21.30;61.10;;;;;;5031961;28;20394;-57
2021/12/18 12:40:20;;;;;;;8.93;0.90;;;21.30;61.20;;;;;;5031529;28;20064;-58
2021/12/18 12:43:16;;;;;;;4.03;0.80;;;21.30;61.00;;;;;;5031783;28;20045;-59
2021/12/18 12:45:43;;;;;;;3.42;0.80;;;21.30;60.90;;;;;;5031616;28;20095;-59
2021/12/18 12:48:08;;;;;;;2.22;0.82;;;21.30;61.10;;;;;;5031401;28;20049;-58
2021/12/18 12:50:34;;;;;;;2.42;0.57;;;21.30;61.20;;;;;;5032087;28;20050;-56
2021/12/18 12:53:04;;;;;;;3.15;0.90;;;21.30;61.30;;;;;;5031685;28;20959;-56
2021/12/18 12:55:37;;;;;;;8.68;0.75;;;21.30;61.40;;;;;;5031291;28;20057;-59
2021/12/18 12:58:03;;;;;;;5.38;0.73;;;21.30;61.40;;;;;;5031867;28;20045;-58
2021/12/18 13:00:28;;;;;;;5.80;0.85;;;21.30;61.50;;;;;;5035605;28;20048;-59
2021/12/18 13:02:58;;;;;;;3.15;0.90;;;21.30;61.60;;;;;;5034498;28;20370;-60
2021/12/18 13:05:25;;;;;;;3.17;0.90;;;21.40;61.80;;;;;;5035549;28;20049;-59
2021/12/18 13:07:53;;;;;;;3.80;0.70;;;21.30;61.80;;;;;;5034266;28;20520;-59
2021/12/18 13:10:23;;;;;;;3.30;0.90;;;21.30;61.80;;;;;;5035563;28;20041;-59
2021/12/18 13:13:05;;;;;;;6.38;0.82;;;21.30;61.70;;;;;;5033414;28;20057;-59
2021/12/18 13:15:46;;;;;;;2.33;0.75;;;21.30;61.60;;;;;;5034876;28;20049;-59
2021/12/18 13:18:12;;;;;;;3.15;0.60;;;21.30;61.70;;;;;;5035092;28;20078;-59
2021/12/18 13:20:55;;;;;;;3.75;0.77;;;21.30;61.60;;;;;;5035276;28;20044;-59
2021/12/18 13:23:22;;;;;;;2.10;0.60;;;21.30;61.80;;;;;;5034681;28;20064;-59
2021/12/18 13:25:51;;;;;;;2.55;0.60;;;21.30;61.70;;;;;;5034796;28;20497;-60
2021/12/18 13:28:17;;;;;;;3.83;0.70;;;21.30;61.80;;;;;;5035255;28;20045;-60
2021/12/18 13:30:43;;;;;;;3.50;0.52;;;21.30;61.80;;;;;;5034014;28;20091;-60